sensor_id;sensor_type;location;lat;lon;timestamp;P1;durP1;ratioP1;P2;durP2;ratioP2
62798;SDS011;48842;51.046;13.796;2023-02-15T00:01:28;40.57;;;26.77;;
62798;SDS011;48842;51.046;13.796;2023-02-15T00:03:53;43.67;;;26.30;;
62798;SDS011;48842;51.046;13.796;2023-02-15T00:06:19;45.33;;;26.43;;
62798;SDS011;48842;51.046;13.796;2023-02-15T00:08:44;47.93;;;27.03;;
62798;SDS011;48842;51.046;13.796;2023-02-15T00:11:10;42.37;;;25.07;;
62798;SDS011;48842;51.046;13.796;2023-02-15T00:13:37;44.27;;;27.20;;
62798;SDS011;48842;51.046;13.796;2023-02-15T00:16:06;45.80;;;26.10;;
62798;SDS011;48842;51.046;13.796;2023-02-15T00:18:33;44.57;;;26.90;;
62798;SDS011;48842;51.046;13.796;2023-02-15T00:21:02;45.37;;;26.83;;
62798;SDS011;48842;51.046;13.796;2023-02-15T00:23:29;45.03;;;27.40;;
62798;SDS011;48842;51.046;13.796;2023-02-15T00:26:10;45.23;;;27.03;;
62798;SDS011;48842;51.046;13.796;2023-02-15T00:28:36;44.80;;;27.33;;
62798;SDS011;48842;51.046;13.796;2023-02-15T00:31:03;50.23;;;28.63;;
62798;SDS011;48842;51.046;13.796;2023-02-15T00:33:30;42.00;;;25.30;;
62798;SDS011;48842;51.046;13.796;2023-02-15T00:35:56;47.07;;;26.50;;
62798;SDS011;48842;51.046;13.796;2023-02-15T00:38:22;44.33;;;26.93;;
62798;SDS011;48842;51.046;13.796;2023-02-15T00:40:51;43.07;;;25.37;;
62798;SDS011;48842;51.046;13.796;2023-02-15T00:43:19;46.10;;;27.17;;
62798;SDS011;48842;51.046;13.796;2023-02-15T00:45:45;44.63;;;26.63;;
62798;SDS011;48842;51.046;13.796;2023-02-15T00:48:11;45.30;;;27.80;;
62798;SDS011;48842;51.046;13.796;2023-02-15T00:50:36;48.77;;;28.80;;
62798;SDS011;48842;51.046;13.796;2023-02-15T00:53:01;43.93;;;27.57;;
62798;SDS011;48842;51.046;13.796;2023-02-15T00:55:28;46.10;;;26.60;;
62798;SDS011;48842;51.046;13.796;2023-02-15T00:57:53;49.30;;;28.00;;
62798;SDS011;48842;51.046;13.796;2023-02-15T01:00:18;47.27;;;26.53;;
62798;SDS011;48842;51.046;13.796;2023-02-15T01:02:43;50.53;;;27.20;;
62798;SDS011;48842;51.046;13.796;2023-02-15T01:05:09;51.27;;;29.87;;
62798;SDS011;48842;51.046;13.796;2023-02-15T01:07:34;47.93;;;28.93;;
62798;SDS011;48842;51.046;13.796;2023-02-15T01:09:59;48.73;;;28.97;;
62798;SDS011;48842;51.046;13.796;2023-02-15T01:12:24;48.00;;;28.13;;
62798;SDS011;48842;51.046;13.796;2023-02-15T01:14:50;49.23;;;27.33;;
62798;SDS011;48842;51.046;13.796;2023-02-15T01:17:15;47.23;;;26.43;;
62798;SDS011;48842;51.046;13.796;2023-02-15T01:19:40;49.13;;;31.03;;
62798;SDS011;48842;51.046;13.796;2023-02-15T01:22:05;46.67;;;28.30;;
62798;SDS011;48842;51.046;13.796;2023-02-15T01:24:31;47.73;;;27.10;;
62798;SDS011;48842;51.046;13.796;2023-02-15T01:26:57;53.60;;;30.80;;
62798;SDS011;48842;51.046;13.796;2023-02-15T01:29:22;51.77;;;28.53;;
62798;SDS011;48842;51.046;13.796;2023-02-15T01:31:47;46.43;;;28.07;;
62798;SDS011;48842;51.046;13.796;2023-02-15T01:34:13;45.90;;;28.50;;
62798;SDS011;48842;51.046;13.796;2023-02-15T01:36:38;50.57;;;28.23;;
62798;SDS011;48842;51.046;13.796;2023-02-15T01:39:03;54.33;;;27.17;;
62798;SDS011;48842;51.046;13.796;2023-02-15T01:41:28;48.40;;;28.07;;
62798;SDS011;48842;51.046;13.796;2023-02-15T01:43:58;49.20;;;27.30;;
62798;SDS011;48842;51.046;13.796;2023-02-15T01:46:31;47.97;;;29.10;;
62798;SDS011;48842;51.046;13.796;2023-02-15T01:49:06;40.20;;;25.53;;
62798;SDS011;48842;51.046;13.796;2023-02-15T01:51:36;49.00;;;27.87;;
62798;SDS011;48842;51.046;13.796;2023-02-15T01:54:18;48.00;;;28.00;;
62798;SDS011;48842;51.046;13.796;2023-02-15T01:56:49;46.93;;;27.50;;
62798;SDS011;48842;51.046;13.796;2023-02-15T01:59:16;51.57;;;29.47;;
62798;SDS011;48842;51.046;13.796;2023-02-15T02:01:45;47.70;;;26.80;;
62798;SDS011;48842;51.046;13.796;2023-02-15T02:04:13;48.37;;;27.83;;
62798;SDS011;48842;51.046;13.796;2023-02-15T02:06:43;53.87;;;30.73;;
62798;SDS011;48842;51.046;13.796;2023-02-15T02:09:11;47.20;;;27.97;;
62798;SDS011;48842;51.046;13.796;2023-02-15T02:11:37;49.60;;;29.10;;
62798;SDS011;48842;51.046;13.796;2023-02-15T02:14:04;45.70;;;26.80;;
62798;SDS011;48842;51.046;13.796;2023-02-15T02:16:38;44.50;;;26.13;;
62798;SDS011;48842;51.046;13.796;2023-02-15T02:22:46;42.63;;;25.50;;
62798;SDS011;48842;51.046;13.796;2023-02-15T02:33:20;47.33;;;25.83;;
62798;SDS011;48842;51.046;13.796;2023-02-15T02:35:57;45.53;;;25.17;;
62798;SDS011;48842;51.046;13.796;2023-02-15T02:38:46;44.17;;;24.67;;
62798;SDS011;48842;51.046;13.796;2023-02-15T02:41:24;44.37;;;26.47;;
62798;SDS011;48842;51.046;13.796;2023-02-15T02:44:12;45.60;;;24.63;;
62798;SDS011;48842;51.046;13.796;2023-02-15T02:46:49;44.70;;;25.20;;
62798;SDS011;48842;51.046;13.796;2023-02-15T02:49:35;46.53;;;25.03;;
62798;SDS011;48842;51.046;13.796;2023-02-15T02:52:04;37.93;;;22.63;;
62798;SDS011;48842;51.046;13.796;2023-02-15T02:54:32;40.63;;;24.10;;
62798;SDS011;48842;51.046;13.796;2023-02-15T02:57:01;39.43;;;23.70;;
62798;SDS011;48842;51.046;13.796;2023-02-15T02:59:38;44.33;;;26.57;;
62798;SDS011;48842;51.046;13.796;2023-02-15T03:02:32;43.13;;;24.33;;
62798;SDS011;48842;51.046;13.796;2023-02-15T03:05:03;49.03;;;25.23;;
62798;SDS011;48842;51.046;13.796;2023-02-15T03:07:33;40.60;;;23.40;;
62798;SDS011;48842;51.046;13.796;2023-02-15T03:10:01;39.70;;;24.47;;
62798;SDS011;48842;51.046;13.796;2023-02-15T03:12:31;41.60;;;22.93;;
62798;SDS011;48842;51.046;13.796;2023-02-15T03:17:38;37.67;;;22.27;;
62798;SDS011;48842;51.046;13.796;2023-02-15T03:20:08;39.17;;;22.97;;
62798;SDS011;48842;51.046;13.796;2023-02-15T03:22:40;38.27;;;23.30;;
62798;SDS011;48842;51.046;13.796;2023-02-15T03:25:13;41.80;;;22.57;;
62798;SDS011;48842;51.046;13.796;2023-02-15T03:27:45;37.73;;;21.97;;
62798;SDS011;48842;51.046;13.796;2023-02-15T03:30:14;35.80;;;21.17;;
62798;SDS011;48842;51.046;13.796;2023-02-15T03:32:41;37.13;;;21.00;;
62798;SDS011;48842;51.046;13.796;2023-02-15T03:35:09;36.30;;;21.73;;
62798;SDS011;48842;51.046;13.796;2023-02-15T03:37:46;39.83;;;20.80;;
62798;SDS011;48842;51.046;13.796;2023-02-15T03:40:16;32.13;;;19.70;;
62798;SDS011;48842;51.046;13.796;2023-02-15T03:46:07;33.83;;;19.90;;
62798;SDS011;48842;51.046;13.796;2023-02-15T03:48:41;35.47;;;20.10;;
62798;SDS011;48842;51.046;13.796;2023-02-15T03:51:12;35.90;;;21.10;;
62798;SDS011;48842;51.046;13.796;2023-02-15T03:54:01;36.13;;;21.37;;
62798;SDS011;48842;51.046;13.796;2023-02-15T03:56:29;35.07;;;19.87;;
62798;SDS011;48842;51.046;13.796;2023-02-15T03:58:54;37.80;;;19.43;;
62798;SDS011;48842;51.046;13.796;2023-02-15T04:04:33;41.67;;;23.70;;
62798;SDS011;48842;51.046;13.796;2023-02-15T04:07:04;42.40;;;23.70;;
62798;SDS011;48842;51.046;13.796;2023-02-15T04:09:31;40.47;;;24.00;;
62798;SDS011;48842;51.046;13.796;2023-02-15T04:12:16;46.10;;;24.75;;
62798;SDS011;48842;51.046;13.796;2023-02-15T04:14:41;35.83;;;20.53;;
62798;SDS011;48842;51.046;13.796;2023-02-15T04:17:25;35.40;;;20.42;;
62798;SDS011;48842;51.046;13.796;2023-02-15T04:19:50;37.17;;;21.80;;
62798;SDS011;48842;51.046;13.796;2023-02-15T04:22:34;35.08;;;21.90;;
62798;SDS011;48842;51.046;13.796;2023-02-15T04:25:18;41.80;;;21.33;;
62798;SDS011;48842;51.046;13.796;2023-02-15T04:27:44;42.10;;;23.17;;
62798;SDS011;48842;51.046;13.796;2023-02-15T04:30:13;37.95;;;21.92;;
62798;SDS011;48842;51.046;13.796;2023-02-15T04:32:40;40.50;;;23.10;;
62798;SDS011;48842;51.046;13.796;2023-02-15T04:35:06;40.83;;;21.73;;
62798;SDS011;48842;51.046;13.796;2023-02-15T04:37:32;37.10;;;21.73;;
62798;SDS011;48842;51.046;13.796;2023-02-15T04:39:57;38.28;;;20.77;;
62798;SDS011;48842;51.046;13.796;2023-02-15T04:42:25;41.88;;;22.70;;
62798;SDS011;48842;51.046;13.796;2023-02-15T04:44:51;35.90;;;21.13;;
62798;SDS011;48842;51.046;13.796;2023-02-15T04:47:17;37.63;;;21.85;;
62798;SDS011;48842;51.046;13.796;2023-02-15T04:49:42;37.50;;;20.33;;
62798;SDS011;48842;51.046;13.796;2023-02-15T04:52:08;39.37;;;21.93;;
62798;SDS011;48842;51.046;13.796;2023-02-15T04:54:34;33.20;;;20.73;;
62798;SDS011;48842;51.046;13.796;2023-02-15T04:56:59;35.50;;;21.93;;
62798;SDS011;48842;51.046;13.796;2023-02-15T04:59:24;35.33;;;21.67;;
62798;SDS011;48842;51.046;13.796;2023-02-15T05:01:49;33.10;;;19.60;;
62798;SDS011;48842;51.046;13.796;2023-02-15T05:04:15;35.73;;;19.83;;
62798;SDS011;48842;51.046;13.796;2023-02-15T05:06:40;37.33;;;20.83;;
62798;SDS011;48842;51.046;13.796;2023-02-15T05:09:05;34.30;;;19.70;;
62798;SDS011;48842;51.046;13.796;2023-02-15T05:11:30;40.47;;;20.40;;
62798;SDS011;48842;51.046;13.796;2023-02-15T05:13:56;34.47;;;19.10;;
62798;SDS011;48842;51.046;13.796;2023-02-15T05:16:21;35.23;;;19.00;;
62798;SDS011;48842;51.046;13.796;2023-02-15T05:18:46;35.13;;;18.40;;
62798;SDS011;48842;51.046;13.796;2023-02-15T05:21:11;32.70;;;19.30;;
62798;SDS011;48842;51.046;13.796;2023-02-15T05:23:38;33.20;;;19.13;;
62798;SDS011;48842;51.046;13.796;2023-02-15T05:26:03;32.80;;;18.33;;
62798;SDS011;48842;51.046;13.796;2023-02-15T05:28:47;30.45;;;18.02;;
62798;SDS011;48842;51.046;13.796;2023-02-15T05:31:16;32.70;;;18.60;;
62798;SDS011;48842;51.046;13.796;2023-02-15T05:33:43;29.10;;;16.52;;
62798;SDS011;48842;51.046;13.796;2023-02-15T05:36:08;31.77;;;17.10;;
62798;SDS011;48842;51.046;13.796;2023-02-15T05:38:34;28.40;;;16.60;;
62798;SDS011;48842;51.046;13.796;2023-02-15T05:41:02;29.10;;;17.25;;
62798;SDS011;48842;51.046;13.796;2023-02-15T05:43:27;29.80;;;16.87;;
62798;SDS011;48842;51.046;13.796;2023-02-15T05:45:53;27.00;;;15.53;;
62798;SDS011;48842;51.046;13.796;2023-02-15T05:48:20;28.00;;;16.45;;
62798;SDS011;48842;51.046;13.796;2023-02-15T05:50:56;29.00;;;17.23;;
62798;SDS011;48842;51.046;13.796;2023-02-15T05:53:23;24.07;;;15.53;;
62798;SDS011;48842;51.046;13.796;2023-02-15T05:55:48;24.90;;;15.47;;
62798;SDS011;48842;51.046;13.796;2023-02-15T05:58:13;23.53;;;15.67;;
62798;SDS011;48842;51.046;13.796;2023-02-15T06:00:39;23.77;;;15.90;;
62798;SDS011;48842;51.046;13.796;2023-02-15T06:03:04;25.33;;;15.07;;
62798;SDS011;48842;51.046;13.796;2023-02-15T06:05:29;30.70;;;15.30;;
62798;SDS011;48842;51.046;13.796;2023-02-15T06:07:54;26.70;;;15.60;;
62798;SDS011;48842;51.046;13.796;2023-02-15T06:10:20;24.13;;;15.00;;
62798;SDS011;48842;51.046;13.796;2023-02-15T06:12:45;23.37;;;15.63;;
62798;SDS011;48842;51.046;13.796;2023-02-15T06:15:11;27.23;;;16.17;;
62798;SDS011;48842;51.046;13.796;2023-02-15T06:17:36;26.43;;;15.27;;
62798;SDS011;48842;51.046;13.796;2023-02-15T06:20:02;25.27;;;15.50;;
62798;SDS011;48842;51.046;13.796;2023-02-15T06:22:28;25.00;;;14.77;;
62798;SDS011;48842;51.046;13.796;2023-02-15T06:24:53;22.87;;;14.63;;
62798;SDS011;48842;51.046;13.796;2023-02-15T06:27:18;26.43;;;14.63;;
62798;SDS011;48842;51.046;13.796;2023-02-15T06:29:43;23.50;;;14.40;;
62798;SDS011;48842;51.046;13.796;2023-02-15T06:32:09;24.20;;;15.37;;
62798;SDS011;48842;51.046;13.796;2023-02-15T06:34:34;22.03;;;14.93;;
62798;SDS011;48842;51.046;13.796;2023-02-15T06:36:59;20.47;;;13.57;;
62798;SDS011;48842;51.046;13.796;2023-02-15T06:39:24;23.40;;;15.13;;
62798;SDS011;48842;51.046;13.796;2023-02-15T06:41:50;23.10;;;14.87;;
62798;SDS011;48842;51.046;13.796;2023-02-15T06:44:15;19.80;;;13.47;;
62798;SDS011;48842;51.046;13.796;2023-02-15T06:46:40;23.17;;;13.87;;
62798;SDS011;48842;51.046;13.796;2023-02-15T06:49:05;23.27;;;14.37;;
62798;SDS011;48842;51.046;13.796;2023-02-15T06:51:31;23.67;;;14.60;;
62798;SDS011;48842;51.046;13.796;2023-02-15T06:53:56;23.20;;;14.23;;
62798;SDS011;48842;51.046;13.796;2023-02-15T06:56:21;24.90;;;13.57;;
62798;SDS011;48842;51.046;13.796;2023-02-15T06:58:49;24.47;;;13.20;;
62798;SDS011;48842;51.046;13.796;2023-02-15T07:01:15;22.23;;;13.57;;
62798;SDS011;48842;51.046;13.796;2023-02-15T07:03:40;20.20;;;12.70;;
62798;SDS011;48842;51.046;13.796;2023-02-15T07:06:06;17.60;;;12.80;;
62798;SDS011;48842;51.046;13.796;2023-02-15T07:08:33;22.47;;;14.13;;
62798;SDS011;48842;51.046;13.796;2023-02-15T07:10:59;23.67;;;14.27;;
62798;SDS011;48842;51.046;13.796;2023-02-15T07:13:44;20.83;;;13.57;;
62798;SDS011;48842;51.046;13.796;2023-02-15T07:16:10;20.90;;;13.10;;
62798;SDS011;48842;51.046;13.796;2023-02-15T07:18:35;21.43;;;12.03;;
62798;SDS011;48842;51.046;13.796;2023-02-15T07:21:01;19.20;;;12.60;;
62798;SDS011;48842;51.046;13.796;2023-02-15T07:23:26;21.87;;;13.80;;
62798;SDS011;48842;51.046;13.796;2023-02-15T07:25:58;22.03;;;14.40;;
62798;SDS011;48842;51.046;13.796;2023-02-15T07:28:24;17.27;;;11.33;;
62798;SDS011;48842;51.046;13.796;2023-02-15T07:30:49;17.63;;;12.33;;
62798;SDS011;48842;51.046;13.796;2023-02-15T07:33:14;17.93;;;12.00;;
62798;SDS011;48842;51.046;13.796;2023-02-15T07:35:52;20.90;;;12.80;;
62798;SDS011;48842;51.046;13.796;2023-02-15T07:38:19;20.07;;;12.20;;
62798;SDS011;48842;51.046;13.796;2023-02-15T07:40:46;18.00;;;12.10;;
62798;SDS011;48842;51.046;13.796;2023-02-15T07:43:12;16.53;;;11.67;;
62798;SDS011;48842;51.046;13.796;2023-02-15T07:45:37;16.80;;;10.33;;
62798;SDS011;48842;51.046;13.796;2023-02-15T07:48:03;17.63;;;11.80;;
62798;SDS011;48842;51.046;13.796;2023-02-15T07:50:29;16.50;;;11.50;;
62798;SDS011;48842;51.046;13.796;2023-02-15T07:52:55;18.83;;;10.87;;
62798;SDS011;48842;51.046;13.796;2023-02-15T07:55:21;18.13;;;11.43;;
62798;SDS011;48842;51.046;13.796;2023-02-15T07:57:47;16.70;;;11.07;;
62798;SDS011;48842;51.046;13.796;2023-02-15T08:00:14;16.63;;;11.30;;
62798;SDS011;48842;51.046;13.796;2023-02-15T08:02:40;16.23;;;10.93;;
62798;SDS011;48842;51.046;13.796;2023-02-15T08:05:06;17.27;;;11.47;;
62798;SDS011;48842;51.046;13.796;2023-02-15T08:07:31;15.43;;;11.10;;
62798;SDS011;48842;51.046;13.796;2023-02-15T08:09:57;16.60;;;9.90;;
62798;SDS011;48842;51.046;13.796;2023-02-15T08:12:25;17.53;;;11.70;;
62798;SDS011;48842;51.046;13.796;2023-02-15T08:14:51;15.00;;;10.70;;
62798;SDS011;48842;51.046;13.796;2023-02-15T08:17:16;15.77;;;10.30;;
62798;SDS011;48842;51.046;13.796;2023-02-15T08:19:41;15.63;;;11.07;;
62798;SDS011;48842;51.046;13.796;2023-02-15T08:22:07;13.70;;;9.90;;
62798;SDS011;48842;51.046;13.796;2023-02-15T08:24:33;14.13;;;10.10;;
62798;SDS011;48842;51.046;13.796;2023-02-15T08:27:01;16.53;;;10.83;;
62798;SDS011;48842;51.046;13.796;2023-02-15T08:29:30;18.53;;;11.00;;
62798;SDS011;48842;51.046;13.796;2023-02-15T08:31:58;20.87;;;10.63;;
62798;SDS011;48842;51.046;13.796;2023-02-15T08:34:27;18.37;;;11.37;;
62798;SDS011;48842;51.046;13.796;2023-02-15T08:36:53;13.33;;;9.90;;
62798;SDS011;48842;51.046;13.796;2023-02-15T08:39:19;12.63;;;9.70;;
62798;SDS011;48842;51.046;13.796;2023-02-15T08:41:44;17.40;;;11.50;;
62798;SDS011;48842;51.046;13.796;2023-02-15T08:44:11;16.20;;;10.47;;
62798;SDS011;48842;51.046;13.796;2023-02-15T08:46:38;14.00;;;10.40;;
62798;SDS011;48842;51.046;13.796;2023-02-15T08:49:04;14.27;;;9.57;;
62798;SDS011;48842;51.046;13.796;2023-02-15T08:51:31;19.37;;;10.43;;
62798;SDS011;48842;51.046;13.796;2023-02-15T08:54:02;14.97;;;9.53;;
62798;SDS011;48842;51.046;13.796;2023-02-15T08:56:30;16.20;;;10.53;;
62798;SDS011;48842;51.046;13.796;2023-02-15T08:58:57;16.60;;;10.23;;
62798;SDS011;48842;51.046;13.796;2023-02-15T09:01:24;13.10;;;9.60;;
62798;SDS011;48842;51.046;13.796;2023-02-15T09:03:57;16.70;;;10.63;;
62798;SDS011;48842;51.046;13.796;2023-02-15T09:06:24;18.93;;;10.97;;
62798;SDS011;48842;51.046;13.796;2023-02-15T09:08:50;15.40;;;9.53;;
62798;SDS011;48842;51.046;13.796;2023-02-15T09:11:17;14.33;;;10.43;;
62798;SDS011;48842;51.046;13.796;2023-02-15T09:13:57;18.40;;;10.13;;
62798;SDS011;48842;51.046;13.796;2023-02-15T09:16:25;24.63;;;11.20;;
62798;SDS011;48842;51.046;13.796;2023-02-15T09:18:52;17.17;;;10.80;;
62798;SDS011;48842;51.046;13.796;2023-02-15T09:21:18;15.33;;;10.67;;
62798;SDS011;48842;51.046;13.796;2023-02-15T09:23:46;17.10;;;11.63;;
62798;SDS011;48842;51.046;13.796;2023-02-15T09:26:14;19.40;;;12.33;;
62798;SDS011;48842;51.046;13.796;2023-02-15T09:28:40;17.20;;;11.70;;
62798;SDS011;48842;51.046;13.796;2023-02-15T09:33:40;15.53;;;11.30;;
62798;SDS011;48842;51.046;13.796;2023-02-15T09:36:12;22.13;;;12.33;;
62798;SDS011;48842;51.046;13.796;2023-02-15T09:38:41;17.77;;;12.03;;
62798;SDS011;48842;51.046;13.796;2023-02-15T09:46:50;16.70;;;11.37;;
62798;SDS011;48842;51.046;13.796;2023-02-15T10:00:08;20.30;;;13.63;;
62798;SDS011;48842;51.046;13.796;2023-02-15T10:02:55;20.20;;;12.80;;
62798;SDS011;48842;51.046;13.796;2023-02-15T10:05:25;23.77;;;14.37;;
62798;SDS011;48842;51.046;13.796;2023-02-15T10:10:54;21.47;;;14.53;;
62798;SDS011;48842;51.046;13.796;2023-02-15T10:14:12;20.40;;;14.40;;
62798;SDS011;48842;51.046;13.796;2023-02-15T10:19:38;23.10;;;15.47;;
62798;SDS011;48842;51.046;13.796;2023-02-15T10:28:09;23.03;;;16.53;;
62798;SDS011;48842;51.046;13.796;2023-02-15T10:30:46;22.93;;;15.70;;
62798;SDS011;48842;51.046;13.796;2023-02-15T10:33:23;24.73;;;15.67;;
62798;SDS011;48842;51.046;13.796;2023-02-15T10:36:14;27.73;;;17.30;;
62798;SDS011;48842;51.046;13.796;2023-02-15T10:39:05;22.67;;;15.50;;
62798;SDS011;48842;51.046;13.796;2023-02-15T10:41:47;22.73;;;14.70;;
62798;SDS011;48842;51.046;13.796;2023-02-15T10:47:18;18.67;;;14.07;;
62798;SDS011;48842;51.046;13.796;2023-02-15T10:50:03;23.60;;;15.13;;
62798;SDS011;48842;51.046;13.796;2023-02-15T10:57:49;21.37;;;14.03;;
62798;SDS011;48842;51.046;13.796;2023-02-15T11:03:22;22.07;;;14.67;;
62798;SDS011;48842;51.046;13.796;2023-02-15T11:05:59;26.63;;;15.10;;
62798;SDS011;48842;51.046;13.796;2023-02-15T11:08:36;20.77;;;14.77;;
62798;SDS011;48842;51.046;13.796;2023-02-15T11:11:05;24.43;;;13.97;;
62798;SDS011;48842;51.046;13.796;2023-02-15T11:13:34;19.00;;;13.77;;
62798;SDS011;48842;51.046;13.796;2023-02-15T11:16:14;22.70;;;15.00;;
62798;SDS011;48842;51.046;13.796;2023-02-15T11:18:49;22.77;;;13.00;;
62798;SDS011;48842;51.046;13.796;2023-02-15T11:21:22;19.70;;;13.40;;
62798;SDS011;48842;51.046;13.796;2023-02-15T11:23:51;19.57;;;13.07;;
62798;SDS011;48842;51.046;13.796;2023-02-15T11:26:22;18.13;;;13.30;;
62798;SDS011;48842;51.046;13.796;2023-02-15T11:28:58;19.23;;;13.10;;
62798;SDS011;48842;51.046;13.796;2023-02-15T11:31:27;19.37;;;12.67;;
62798;SDS011;48842;51.046;13.796;2023-02-15T11:34:10;20.60;;;13.60;;
62798;SDS011;48842;51.046;13.796;2023-02-15T11:36:40;19.13;;;13.40;;
62798;SDS011;48842;51.046;13.796;2023-02-15T11:39:10;22.03;;;14.20;;
62798;SDS011;48842;51.046;13.796;2023-02-15T11:41:39;17.90;;;12.63;;
62798;SDS011;48842;51.046;13.796;2023-02-15T11:44:11;17.37;;;12.70;;
62798;SDS011;48842;51.046;13.796;2023-02-15T11:46:47;18.73;;;13.33;;
62798;SDS011;48842;51.046;13.796;2023-02-15T11:49:20;24.30;;;15.00;;
62798;SDS011;48842;51.046;13.796;2023-02-15T11:51:47;22.07;;;14.80;;
62798;SDS011;48842;51.046;13.796;2023-02-15T11:54:15;22.90;;;14.60;;
62798;SDS011;48842;51.046;13.796;2023-02-15T11:56:43;20.17;;;13.30;;
62798;SDS011;48842;51.046;13.796;2023-02-15T11:59:12;22.40;;;14.30;;
62798;SDS011;48842;51.046;13.796;2023-02-15T12:01:45;20.17;;;14.37;;
62798;SDS011;48842;51.046;13.796;2023-02-15T12:04:31;19.60;;;14.60;;
62798;SDS011;48842;51.046;13.796;2023-02-15T12:07:09;23.80;;;15.67;;
62798;SDS011;48842;51.046;13.796;2023-02-15T12:09:45;24.50;;;15.43;;
62798;SDS011;48842;51.046;13.796;2023-02-15T12:14:46;17.23;;;13.97;;
62798;SDS011;48842;51.046;13.796;2023-02-15T12:17:13;20.80;;;15.40;;
62798;SDS011;48842;51.046;13.796;2023-02-15T12:19:39;22.50;;;14.70;;
62798;SDS011;48842;51.046;13.796;2023-02-15T12:22:05;21.03;;;13.60;;
62798;SDS011;48842;51.046;13.796;2023-02-15T12:24:46;18.20;;;12.57;;
62798;SDS011;48842;51.046;13.796;2023-02-15T12:27:16;19.87;;;13.63;;
62798;SDS011;48842;51.046;13.796;2023-02-15T12:29:46;17.90;;;13.00;;
62798;SDS011;48842;51.046;13.796;2023-02-15T12:32:34;17.73;;;13.27;;
62798;SDS011;48842;51.046;13.796;2023-02-15T12:35:13;20.83;;;13.97;;
62798;SDS011;48842;51.046;13.796;2023-02-15T12:37:51;18.57;;;13.80;;
62798;SDS011;48842;51.046;13.796;2023-02-15T12:40:22;20.27;;;13.63;;
62798;SDS011;48842;51.046;13.796;2023-02-15T12:42:51;22.63;;;12.70;;
62798;SDS011;48842;51.046;13.796;2023-02-15T12:45:26;23.30;;;14.57;;
62798;SDS011;48842;51.046;13.796;2023-02-15T12:50:36;20.77;;;14.13;;
62798;SDS011;48842;51.046;13.796;2023-02-15T12:53:06;20.70;;;14.60;;
62798;SDS011;48842;51.046;13.796;2023-02-15T12:55:33;21.37;;;14.47;;
62798;SDS011;48842;51.046;13.796;2023-02-15T12:58:08;23.20;;;15.80;;
62798;SDS011;48842;51.046;13.796;2023-02-15T13:00:45;20.13;;;14.23;;
62798;SDS011;48842;51.046;13.796;2023-02-15T13:03:18;21.93;;;14.80;;
62798;SDS011;48842;51.046;13.796;2023-02-15T13:05:46;18.60;;;13.43;;
62798;SDS011;48842;51.046;13.796;2023-02-15T13:08:16;21.80;;;14.53;;
62798;SDS011;48842;51.046;13.796;2023-02-15T13:10:56;20.40;;;15.33;;
62798;SDS011;48842;51.046;13.796;2023-02-15T13:13:26;22.73;;;15.10;;
62798;SDS011;48842;51.046;13.796;2023-02-15T13:15:55;20.00;;;14.70;;
62798;SDS011;48842;51.046;13.796;2023-02-15T13:18:45;22.03;;;13.83;;
62798;SDS011;48842;51.046;13.796;2023-02-15T13:21:12;21.27;;;14.73;;
62798;SDS011;48842;51.046;13.796;2023-02-15T13:23:37;22.30;;;15.10;;
62798;SDS011;48842;51.046;13.796;2023-02-15T13:26:08;22.50;;;15.07;;
62798;SDS011;48842;51.046;13.796;2023-02-15T13:28:41;20.80;;;14.93;;
62798;SDS011;48842;51.046;13.796;2023-02-15T13:31:14;20.60;;;15.27;;
62798;SDS011;48842;51.046;13.796;2023-02-15T13:33:49;21.23;;;15.93;;
62798;SDS011;48842;51.046;13.796;2023-02-15T13:36:23;18.93;;;13.90;;
62798;SDS011;48842;51.046;13.796;2023-02-15T13:41:34;23.63;;;16.33;;
62798;SDS011;48842;51.046;13.796;2023-02-15T13:46:51;24.50;;;16.77;;
62798;SDS011;48842;51.046;13.796;2023-02-15T13:49:41;24.90;;;16.70;;
62798;SDS011;48842;51.046;13.796;2023-02-15T13:52:25;22.83;;;14.57;;
62798;SDS011;48842;51.046;13.796;2023-02-15T13:57:33;24.53;;;15.43;;
62798;SDS011;48842;51.046;13.796;2023-02-15T14:08:29;26.13;;;16.40;;
62798;SDS011;48842;51.046;13.796;2023-02-15T14:14:15;25.63;;;16.57;;
62798;SDS011;48842;51.046;13.796;2023-02-15T14:20:01;25.03;;;18.03;;
62798;SDS011;48842;51.046;13.796;2023-02-15T14:22:35;26.50;;;18.97;;
62798;SDS011;48842;51.046;13.796;2023-02-15T14:25:25;25.23;;;19.63;;
62798;SDS011;48842;51.046;13.796;2023-02-15T14:30:51;28.70;;;19.20;;
62798;SDS011;48842;51.046;13.796;2023-02-15T14:33:27;31.90;;;20.63;;
62798;SDS011;48842;51.046;13.796;2023-02-15T14:35:56;32.90;;;19.63;;
62798;SDS011;48842;51.046;13.796;2023-02-15T14:39:11;27.23;;;19.67;;
62798;SDS011;48842;51.046;13.796;2023-02-15T14:41:29;32.57;;;20.73;;
62798;SDS011;48842;51.046;13.796;2023-02-15T14:49:51;32.67;;;21.97;;
62798;SDS011;48842;51.046;13.796;2023-02-15T14:52:17;30.40;;;22.67;;
62798;SDS011;48842;51.046;13.796;2023-02-15T15:02:38;32.57;;;21.03;;
62798;SDS011;48842;51.046;13.796;2023-02-15T15:08:00;32.00;;;21.30;;
62798;SDS011;48842;51.046;13.796;2023-02-15T15:10:42;51.50;;;26.57;;
62798;SDS011;48842;51.046;13.796;2023-02-15T15:15:56;34.17;;;23.33;;
62798;SDS011;48842;51.046;13.796;2023-02-15T15:18:48;35.67;;;22.80;;
62798;SDS011;48842;51.046;13.796;2023-02-15T15:30:47;36.40;;;22.87;;
62798;SDS011;48842;51.046;13.796;2023-02-15T15:41:19;38.67;;;24.27;;
62798;SDS011;48842;51.046;13.796;2023-02-15T15:44:20;38.70;;;23.63;;
62798;SDS011;48842;51.046;13.796;2023-02-15T15:50:00;38.90;;;21.53;;
62798;SDS011;48842;51.046;13.796;2023-02-15T15:52:25;38.03;;;21.80;;
62798;SDS011;48842;51.046;13.796;2023-02-15T15:54:56;31.60;;;20.03;;
62798;SDS011;48842;51.046;13.796;2023-02-15T15:57:28;36.63;;;20.83;;
62798;SDS011;48842;51.046;13.796;2023-02-15T15:59:54;32.03;;;21.90;;
62798;SDS011;48842;51.046;13.796;2023-02-15T16:02:21;36.03;;;22.63;;
62798;SDS011;48842;51.046;13.796;2023-02-15T16:04:48;34.70;;;23.13;;
62798;SDS011;48842;51.046;13.796;2023-02-15T16:12:28;36.60;;;21.17;;
62798;SDS011;48842;51.046;13.796;2023-02-15T16:14:56;37.63;;;20.80;;
62798;SDS011;48842;51.046;13.796;2023-02-15T16:17:22;34.70;;;21.60;;
62798;SDS011;48842;51.046;13.796;2023-02-15T16:19:49;30.30;;;20.47;;
62798;SDS011;48842;51.046;13.796;2023-02-15T16:22:18;31.00;;;20.67;;
62798;SDS011;48842;51.046;13.796;2023-02-15T16:27:14;31.37;;;20.40;;
62798;SDS011;48842;51.046;13.796;2023-02-15T16:33:07;34.80;;;19.80;;
62798;SDS011;48842;51.046;13.796;2023-02-15T16:35:37;30.80;;;19.90;;
62798;SDS011;48842;51.046;13.796;2023-02-15T16:38:04;32.40;;;20.97;;
62798;SDS011;48842;51.046;13.796;2023-02-15T16:40:41;32.97;;;20.50;;
62798;SDS011;48842;51.046;13.796;2023-02-15T16:43:13;32.57;;;21.83;;
62798;SDS011;48842;51.046;13.796;2023-02-15T16:45:41;35.33;;;20.60;;
62798;SDS011;48842;51.046;13.796;2023-02-15T16:48:10;39.67;;;22.50;;
62798;SDS011;48842;51.046;13.796;2023-02-15T16:50:41;59.77;;;37.97;;